createdAt,value
2022-10-29T00:03:41.580Z,7.76
2022-10-29T00:08:48.637Z,6.09
2022-10-29T00:13:55.668Z,4.90
2022-10-29T00:19:03.060Z,3.48
2022-10-29T00:24:10.003Z,3.99
2022-10-29T00:29:16.997Z,4.53
2022-10-29T00:34:23.874Z,5.57
2022-10-29T00:39:30.914Z,7.15
2022-10-29T00:44:37.815Z,3.96
2022-10-29T00:49:44.840Z,5.66
2022-10-29T00:54:51.738Z,5.08
2022-10-29T00:59:58.724Z,7.02
2022-10-29T01:05:05.702Z,6.83
2022-10-29T01:10:12.605Z,5.87
2022-10-29T01:15:19.736Z,3.97
2022-10-29T01:20:26.622Z,3.23
2022-10-29T01:25:33.550Z,2.04
2022-10-29T01:30:40.515Z,2.10
2022-10-29T01:35:47.406Z,1.37
2022-10-29T01:40:54.408Z,2.31
2022-10-29T01:46:01.381Z,1.63
2022-10-29T01:51:08.380Z,1.71
2022-10-29T01:56:15.335Z,1.56
2022-10-29T02:01:22.421Z,1.11
2022-10-29T02:06:29.206Z,2.10
2022-10-29T02:11:36.128Z,1.41
2022-10-29T02:16:43.091Z,2.83
2022-10-29T02:21:50.166Z,2.40
2022-10-29T02:26:57.205Z,2.68
2022-10-29T02:32:04.238Z,4.38
2022-10-29T02:37:11.115Z,4.21
2022-10-29T02:42:18.056Z,3.00
2022-10-29T02:47:24.972Z,2.86
2022-10-29T02:52:31.943Z,1.87
2022-10-29T02:57:38.949Z,2.50
2022-10-29T03:02:45.999Z,3.28
2022-10-29T03:07:52.836Z,2.27
2022-10-29T03:12:59.795Z,1.60
2022-10-29T03:18:06.706Z,3.89
2022-10-29T03:23:13.668Z,2.91
2022-10-29T03:28:20.648Z,2.60
2022-10-29T03:33:27.615Z,2.21
2022-10-29T03:38:34.531Z,1.78
2022-10-29T03:43:41.601Z,3.71
2022-10-29T03:48:48.482Z,2.16
2022-10-29T03:53:55.692Z,2.51
2022-10-29T03:59:02.838Z,1.84
2022-10-29T04:04:09.859Z,2.50
2022-10-29T04:09:16.783Z,0.94
2022-10-29T04:14:23.842Z,2.20
2022-10-29T04:19:30.764Z,2.90
2022-10-29T04:29:44.425Z,4.91
2022-10-29T04:34:51.433Z,4.87
2022-10-29T04:39:58.363Z,2.57
2022-10-29T04:45:05.385Z,3.68
2022-10-29T04:50:12.317Z,3.61
2022-10-29T04:55:19.409Z,2.62
2022-10-29T05:00:26.286Z,2.41
2022-10-29T05:05:33.322Z,2.46
2022-10-29T05:10:40.221Z,2.94
2022-10-29T05:15:52.734Z,3.46
2022-10-29T05:20:53.723Z,2.50
2022-10-29T05:26:00.786Z,3.71
2022-10-29T05:31:07.721Z,1.81
2022-10-29T05:36:14.642Z,3.62
2022-10-29T05:41:21.561Z,2.70
2022-10-29T05:46:28.533Z,3.45
2022-10-29T05:51:35.441Z,3.50
2022-10-29T05:56:42.500Z,4.08
2022-10-29T06:01:49.569Z,4.70
2022-10-29T06:06:56.439Z,1.72
2022-10-29T06:12:03.287Z,3.44
2022-10-29T06:17:10.237Z,3.67
2022-10-29T06:22:17.167Z,2.34
2022-10-29T06:27:24.303Z,3.00
2022-10-29T06:32:31.327Z,3.43
2022-10-29T06:37:38.277Z,2.76
2022-10-29T06:42:45.227Z,4.50
2022-10-29T06:47:52.252Z,3.22
2022-10-29T06:52:59.640Z,6.39
2022-10-29T06:58:05.751Z,3.58
2022-10-29T07:03:12.669Z,3.85
2022-10-29T07:08:19.681Z,4.54
2022-10-29T07:13:26.583Z,3.99
2022-10-29T07:18:33.618Z,4.00
2022-10-29T07:23:40.524Z,4.05
2022-10-29T07:28:47.649Z,4.36
2022-10-29T07:33:54.580Z,4.27
2022-10-29T07:39:01.611Z,4.08
2022-10-29T07:44:08.543Z,2.76
2022-10-29T07:49:15.576Z,4.44
2022-10-29T07:54:22.920Z,5.56
2022-10-29T07:59:30.015Z,5.31
2022-10-29T08:04:36.911Z,6.40
2022-10-29T08:09:43.992Z,4.44
2022-10-29T08:14:50.915Z,5.50
2022-10-29T08:19:59.349Z,5.10
2022-10-29T08:25:06.246Z,5.79
2022-10-29T08:30:13.307Z,8.92
2022-10-29T08:35:20.215Z,7.17
2022-10-29T08:40:27.339Z,5.85
2022-10-29T08:45:34.298Z,4.80
2022-10-29T08:50:41.389Z,6.42
2022-10-29T08:55:48.315Z,6.14
2022-10-29T09:00:55.358Z,7.10
2022-10-29T09:06:02.222Z,6.65
2022-10-29T09:11:09.276Z,6.65
2022-10-29T09:16:16.240Z,5.79
2022-10-29T09:21:23.244Z,4.72
2022-10-29T09:26:30.184Z,5.83
2022-10-29T09:31:37.275Z,7.07
2022-10-29T09:36:44.208Z,4.24
2022-10-29T09:41:51.287Z,6.79
2022-10-29T09:46:58.229Z,7.26
2022-10-29T09:52:05.252Z,4.84
2022-10-29T09:57:12.173Z,5.54
2022-10-29T10:02:19.700Z,4.37
2022-10-29T10:07:26.517Z,4.64
2022-10-29T10:12:33.572Z,4.59
2022-10-29T10:17:41.484Z,6.60
2022-10-29T10:22:48.404Z,8.05
2022-10-29T10:27:55.657Z,7.69
2022-10-29T10:33:02.421Z,7.41
2022-10-29T10:38:09.328Z,5.58
2022-10-29T10:43:16.320Z,5.79
2022-10-29T10:48:23.332Z,5.12
2022-10-29T10:53:30.228Z,7.28
2022-10-29T10:58:37.118Z,7.15
2022-10-29T11:03:44.253Z,5.39
2022-10-29T11:08:51.165Z,7.23
2022-10-29T11:13:58.197Z,6.11
2022-10-29T11:19:05.123Z,5.92
2022-10-29T11:24:12.063Z,6.30
2022-10-29T11:29:19.016Z,4.22
2022-10-29T11:34:26.240Z,8.59
2022-10-29T11:39:33.275Z,5.68
2022-10-29T11:44:40.350Z,6.54
2022-10-29T11:49:47.264Z,14.47
2022-10-29T11:54:54.295Z,8.41
2022-10-29T12:00:01.245Z,6.19
2022-10-29T12:05:08.253Z,9.09
2022-10-29T12:10:15.247Z,8.60
2022-10-29T12:15:22.268Z,7.56
2022-10-29T12:20:29.206Z,6.04
2022-10-29T12:25:36.229Z,5.99
2022-10-29T12:30:43.133Z,6.04
2022-10-29T12:35:50.256Z,8.69
2022-10-29T12:40:57.815Z,7.41
2022-10-29T12:46:21.170Z,6.40
2022-10-29T12:51:11.444Z,5.75
2022-10-29T12:56:18.476Z,5.06
2022-10-29T13:01:38.373Z,7.09
2022-10-29T13:06:32.013Z,7.39
2022-10-29T13:11:39.002Z,6.90
2022-10-29T13:16:46.040Z,5.31
2022-10-29T13:21:52.944Z,6.26
2022-10-29T13:27:00.070Z,5.92
2022-10-29T13:32:06.963Z,6.21
2022-10-29T13:37:14.098Z,7.48
2022-10-29T13:42:21.043Z,5.89
2022-10-29T13:47:28.054Z,7.33
2022-10-29T13:52:34.987Z,6.66
2022-10-29T13:57:42.017Z,4.72
2022-10-29T14:02:48.972Z,7.31
2022-10-29T14:07:56.406Z,5.22
2022-10-29T14:13:02.516Z,5.16
2022-10-29T14:18:09.531Z,7.08
2022-10-29T14:23:16.447Z,7.18
2022-10-29T14:28:23.534Z,5.37
2022-10-29T14:33:30.466Z,8.07
2022-10-29T14:38:37.459Z,6.58
2022-10-29T14:43:44.380Z,4.22
2022-10-29T14:48:52.485Z,5.46
2022-10-29T14:53:59.393Z,5.62
2022-10-29T14:59:06.413Z,8.97
2022-10-29T15:04:13.328Z,7.91
2022-10-29T15:09:20.504Z,6.25
2022-10-29T15:19:33.937Z,7.46
2022-10-29T15:24:40.874Z,6.44
2022-10-29T15:29:47.981Z,7.75
2022-10-29T15:34:54.875Z,5.15
2022-10-29T15:40:02.051Z,3.86
2022-10-29T15:45:09.037Z,2.88
2022-10-29T15:50:16.079Z,2.84
2022-10-29T15:55:26.592Z,1.65
2022-10-29T16:00:29.673Z,1.56
2022-10-29T16:05:36.585Z,3.46
2022-10-29T16:10:43.773Z,2.78
2022-10-29T16:15:50.650Z,4.73
2022-10-29T16:20:57.790Z,2.53
2022-10-29T16:26:04.702Z,3.28
2022-10-29T16:31:11.809Z,2.86
2022-10-29T16:36:18.715Z,4.04
2022-10-29T16:41:25.746Z,4.55
2022-10-29T16:46:32.651Z,4.39
2022-10-29T16:51:39.741Z,4.58
2022-10-29T16:56:46.667Z,7.83
2022-10-29T17:01:53.642Z,3.39
2022-10-29T17:07:00.590Z,2.88
2022-10-29T17:12:07.663Z,9.27
2022-10-29T17:17:14.617Z,3.35
2022-10-29T17:22:21.679Z,2.89
2022-10-29T17:27:28.605Z,2.85
2022-10-29T17:32:35.894Z,4.96
2022-10-29T17:37:43.139Z,5.39
2022-10-29T17:42:50.368Z,3.37
2022-10-29T17:48:00.272Z,4.51
2022-10-29T17:53:06.406Z,2.02
2022-10-29T17:58:17.960Z,3.15
2022-10-29T18:03:21.649Z,4.18
2022-10-29T18:08:28.562Z,2.59
2022-10-29T18:13:35.651Z,2.85
2022-10-29T18:18:54.688Z,9.89
2022-10-29T18:23:49.333Z,3.76
2022-10-29T18:28:56.297Z,4.41
2022-10-29T18:34:03.306Z,3.80
2022-10-29T18:39:10.250Z,5.07
2022-10-29T18:44:17.377Z,3.79
2022-10-29T18:49:24.344Z,6.49
2022-10-29T18:54:31.475Z,5.16
2022-10-29T18:59:38.354Z,5.17
2022-10-29T19:04:45.436Z,3.66
2022-10-29T19:09:52.416Z,5.21
2022-10-29T19:14:59.636Z,3.28
2022-10-29T19:20:06.580Z,7.47
2022-10-29T19:25:13.728Z,7.58
2022-10-29T19:30:20.773Z,7.50
2022-10-29T19:35:27.863Z,5.62
2022-10-29T19:40:34.798Z,8.43
2022-10-29T19:45:41.869Z,5.86
2022-10-29T19:50:48.785Z,7.87
2022-10-29T19:55:55.890Z,5.63
2022-10-29T20:01:02.983Z,6.50
2022-10-29T20:06:09.945Z,7.83
2022-10-29T20:11:17.006Z,14.53
2022-10-29T20:16:24.111Z,8.05
2022-10-29T20:21:31.108Z,4.74
2022-10-29T20:26:38.213Z,4.18
2022-10-29T20:31:45.071Z,4.46
2022-10-29T20:36:52.336Z,7.15
2022-10-29T20:41:59.272Z,9.07
2022-10-29T20:47:06.306Z,14.23
2022-10-29T20:52:13.331Z,12.91
2022-10-29T20:57:20.372Z,11.39
2022-10-29T21:02:27.385Z,9.72
2022-10-29T21:07:34.394Z,13.17
2022-10-29T21:12:41.334Z,13.24
2022-10-29T21:17:48.334Z,16.50
2022-10-29T21:22:55.534Z,12.05
2022-10-29T21:28:01.831Z,14.58
2022-10-29T21:33:08.839Z,7.04
2022-10-29T21:43:22.207Z,12.93
2022-10-29T21:48:29.205Z,11.57
2022-10-29T21:53:36.130Z,14.39
2022-10-29T21:58:43.116Z,14.94
2022-10-29T22:03:50.034Z,15.43
2022-10-29T22:08:57.153Z,12.26
2022-10-29T22:14:04.083Z,14.10
2022-10-29T22:19:11.161Z,9.34
2022-10-29T22:24:18.112Z,11.71
2022-10-29T22:29:25.112Z,11.51
2022-10-29T22:34:32.089Z,9.33
2022-10-29T22:39:39.087Z,14.23
2022-10-29T22:44:46.014Z,9.86
2022-10-29T22:49:53.153Z,12.71
2022-10-29T22:55:00.162Z,8.42
2022-10-29T23:00:07.237Z,10.89
2022-10-29T23:05:14.123Z,10.66
2022-10-29T23:10:21.181Z,11.48
2022-10-29T23:15:28.158Z,7.74
2022-10-29T23:20:35.262Z,12.19
2022-10-29T23:25:42.212Z,13.26
2022-10-29T23:30:49.189Z,13.00
2022-10-29T23:35:56.130Z,10.70
2022-10-29T23:41:03.165Z,12.96
2022-10-29T23:46:10.076Z,11.06
2022-10-29T23:51:17.175Z,12.47
2022-10-29T23:56:24.100Z,9.35
